Time;durP1;ratioP1;P1;durP2;ratioP2;P2;SDS_P1;SDS_P2;PMS_P1;PMS_P2;Temp;Humidity;BMP_temperature;BMP_pressure;BME280_temperature;BME280_humidity;BME280_pressure;Samples;Min_cycle;Max_cycle;Signal;HPM_P1;HPM_P2
2023/10/16 00:01:21;;;;;;;9.97;2.43;;;;;;;;;;5011672;28;20080;-62
2023/10/16 00:03:48;;;;;;;7.53;2.20;;;;;;;;;;5015440;28;20102;-63
2023/10/16 00:06:14;;;;;;;9.97;2.10;;;;;;;;;;5010982;28;20491;-62
2023/10/16 00:08:50;;;;;;;5.30;1.80;;;;;;;;;;5009926;28;20030;-62
2023/10/16 00:11:23;;;;;;;13.13;2.60;;;;;;;;;;5010764;28;20032;-63
2023/10/16 00:13:49;;;;;;;8.40;1.90;;;;;;;;;;5012728;28;20022;-62
2023/10/16 00:16:16;;;;;;;11.90;2.07;;;;;;;;;;5013280;28;20014;-62
2023/10/16 00:18:41;;;;;;;8.20;1.93;;;;;;;;;;5010887;28;20046;-63
2023/10/16 00:21:06;;;;;;;8.70;2.40;;;;;;;;;;5010500;28;20033;-63
2023/10/16 00:23:37;;;;;;;9.47;2.10;;;;;;;;;;5014407;28;20024;-65
2023/10/16 00:26:03;;;;;;;4.38;1.98;;;;;;;;;;5007568;28;20025;-64
2023/10/16 00:28:30;;;;;;;6.27;2.10;;;;;;;;;;5012200;28;20033;-62
2023/10/16 00:30:55;;;;;;;8.93;2.30;;;;;;;;;;5014286;28;20091;-62
2023/10/16 00:33:21;;;;;;;10.07;1.97;;;;;;;;;;5008316;28;20052;-64
2023/10/16 00:35:48;;;;;;;11.00;2.60;;;;;;;;;;5006356;28;20033;-63
2023/10/16 00:38:16;;;;;;;7.17;2.60;;;;;;;;;;5010570;28;20456;-61
2023/10/16 00:40:51;;;;;;;10.17;2.20;;;;;;;;;;5010257;28;20577;-61
2023/10/16 00:43:19;;;;;;;5.53;1.93;;;;;;;;;;5010612;28;20025;-63
2023/10/16 00:45:48;;;;;;;11.27;2.03;;;;;;;;;;5010335;28;20029;-64
2023/10/16 00:48:17;;;;;;;9.57;2.20;;;;;;;;;;5008820;28;20029;-64
2023/10/16 00:50:43;;;;;;;10.90;2.50;;;;;;;;;;5010157;28;20022;-66
2023/10/16 00:53:08;;;;;;;7.97;2.23;;;;;;;;;;5010012;28;20021;-68
2023/10/16 00:55:34;;;;;;;10.30;2.20;;;;;;;;;;5010573;28;20030;-66
2023/10/16 00:58:00;;;;;;;7.77;2.20;;;;;;;;;;5006563;28;20075;-67
2023/10/16 01:03:31;;;;;;;8.57;2.30;;;;;;;;;;5008970;28;20021;-68
2023/10/16 01:05:58;;;;;;;9.97;2.40;;;;;;;;;;5010125;28;20094;-67
2023/10/16 01:08:25;;;;;;;6.00;2.20;;;;;;;;;;5005559;28;20020;-68
2023/10/16 01:10:50;;;;;;;12.73;2.60;;;;;;;;;;5010993;28;20018;-67
2023/10/16 01:13:16;;;;;;;9.83;2.30;;;;;;;;;;5009672;28;20075;-68
2023/10/16 01:15:50;;;;;;;9.60;2.20;;;;;;;;;;5009832;28;20018;-67
2023/10/16 01:18:15;;;;;;;9.53;2.37;;;;;;;;;;5011035;28;20042;-68
2023/10/16 01:20:48;;;;;;;9.13;2.60;;;;;;;;;;5007458;28;20075;-68
2023/10/16 01:23:16;;;;;;;9.90;2.27;;;;;;;;;;5010122;28;20030;-68
2023/10/16 01:25:43;;;;;;;9.77;2.63;;;;;;;;;;5012600;28;20091;-68
2023/10/16 01:28:09;;;;;;;11.40;2.47;;;;;;;;;;5009181;28;20034;-67
2023/10/16 01:30:34;;;;;;;16.17;2.53;;;;;;;;;;5012605;28;20495;-68
2023/10/16 01:33:00;;;;;;;9.33;2.13;;;;;;;;;;5009747;28;20026;-67
2023/10/16 01:35:25;;;;;;;9.50;2.40;;;;;;;;;;5009764;28;20050;-68
2023/10/16 01:37:52;;;;;;;6.17;2.10;;;;;;;;;;5009992;28;20018;-68
2023/10/16 01:40:25;;;;;;;9.20;3.20;;;;;;;;;;5007167;28;20014;-67
2023/10/16 01:42:54;;;;;;;6.33;2.00;;;;;;;;;;5009545;28;20115;-68
2023/10/16 01:45:20;;;;;;;7.67;2.57;;;;;;;;;;5009613;28;20022;-67
2023/10/16 01:47:45;;;;;;;11.30;2.07;;;;;;;;;;5018016;28;20037;-67
2023/10/16 01:50:17;;;;;;;6.57;2.13;;;;;;;;;;5009716;28;20022;-67
2023/10/16 01:52:42;;;;;;;21.93;3.13;;;;;;;;;;5009436;28;20020;-68
2023/10/16 01:55:10;;;;;;;8.87;2.37;;;;;;;;;;5010954;28;20379;-68
2023/10/16 01:57:35;;;;;;;14.23;2.70;;;;;;;;;;5012611;28;20364;-68
2023/10/16 02:00:00;;;;;;;7.40;2.00;;;;;;;;;;5013309;28;20079;-67
2023/10/16 02:02:25;;;;;;;6.50;1.97;;;;;;;;;;5013753;28;20034;-67
2023/10/16 02:04:50;;;;;;;4.93;2.10;;;;;;;;;;5011572;28;20030;-67
2023/10/16 02:07:16;;;;;;;9.23;2.03;;;;;;;;;;5009424;28;20022;-68
2023/10/16 02:09:41;;;;;;;7.10;1.83;;;;;;;;;;5009216;28;20065;-68
2023/10/16 02:12:16;;;;;;;7.50;2.70;;;;;;;;;;5004677;28;20028;-68
2023/10/16 02:14:42;;;;;;;8.47;2.00;;;;;;;;;;5008947;28;20032;-68
2023/10/16 02:17:19;;;;;;;7.03;2.00;;;;;;;;;;5009363;28;20079;-68
2023/10/16 02:19:44;;;;;;;8.80;1.93;;;;;;;;;;5012211;28;20022;-68
2023/10/16 02:22:11;;;;;;;11.33;2.23;;;;;;;;;;5009696;28;20365;-69
2023/10/16 02:24:37;;;;;;;7.57;3.03;;;;;;;;;;5009874;28;20026;-68
2023/10/16 02:27:03;;;;;;;8.17;2.00;;;;;;;;;;5015718;28;20470;-68
2023/10/16 02:29:31;;;;;;;8.63;1.70;;;;;;;;;;5010938;28;20030;-68
2023/10/16 02:31:57;;;;;;;10.97;1.93;;;;;;;;;;5011008;28;20059;-68
2023/10/16 02:34:22;;;;;;;11.00;1.80;;;;;;;;;;5012177;28;20026;-68
2023/10/16 02:36:51;;;;;;;8.77;2.03;;;;;;;;;;5014916;28;20022;-68
2023/10/16 02:42:08;;;;;;;10.70;2.10;;;;;;;;;;5018983;28;20028;-68
2023/10/16 02:44:42;;;;;;;6.27;2.00;;;;;;;;;;5009985;28;20030;-67
2023/10/16 02:47:08;;;;;;;7.70;2.80;;;;;;;;;;5012165;28;20026;-68
2023/10/16 02:49:33;;;;;;;8.27;1.60;;;;;;;;;;5011664;28;20033;-68
2023/10/16 02:51:59;;;;;;;4.87;1.50;;;;;;;;;;5012001;28;20369;-69
2023/10/16 02:54:24;;;;;;;9.73;2.00;;;;;;;;;;5013884;28;20026;-67
2023/10/16 02:56:54;;;;;;;7.70;1.70;;;;;;;;;;5009581;28;20022;-68
2023/10/16 02:59:19;;;;;;;6.77;1.63;;;;;;;;;;5012286;28;20018;-68
2023/10/16 03:01:45;;;;;;;8.97;1.90;;;;;;;;;;5012520;28;20368;-68
2023/10/16 03:04:10;;;;;;;7.87;2.13;;;;;;;;;;5012093;28;20030;-67
2023/10/16 03:06:39;;;;;;;7.60;2.00;;;;;;;;;;5012834;28;20071;-68
2023/10/16 03:09:25;;;;;;;5.77;1.50;;;;;;;;;;5009952;28;20041;-68
2023/10/16 03:11:56;;;;;;;6.67;2.00;;;;;;;;;;5011074;28;20391;-66
2023/10/16 03:14:22;;;;;;;4.78;1.60;;;;;;;;;;5011801;28;20468;-64
2023/10/16 03:16:48;;;;;;;8.70;1.87;;;;;;;;;;5008170;28;20049;-61
2023/10/16 03:19:16;;;;;;;7.67;1.80;;;;;;;;;;5011333;28;20535;-65
2023/10/16 03:21:41;;;;;;;7.43;1.90;;;;;;;;;;5010468;28;20021;-63
2023/10/16 03:24:09;;;;;;;6.33;2.03;;;;;;;;;;5011711;28;20429;-66
2023/10/16 03:26:34;;;;;;;5.30;1.80;;;;;;;;;;5013363;28;20022;-61
2023/10/16 03:29:01;;;;;;;9.17;2.60;;;;;;;;;;5012284;28;20025;-65
2023/10/16 03:31:28;;;;;;;9.77;2.03;;;;;;;;;;5011688;28;20032;-65
2023/10/16 03:33:56;;;;;;;10.87;2.10;;;;;;;;;;5014323;28;20022;-63
2023/10/16 03:36:21;;;;;;;7.37;2.00;;;;;;;;;;5011534;28;20527;-62
2023/10/16 03:38:49;;;;;;;6.20;2.10;;;;;;;;;;5016725;28;20122;-61
2023/10/16 03:43:48;;;;;;;5.43;1.85;;;;;;;;;;5011273;28;20498;-64
2023/10/16 03:46:14;;;;;;;7.87;2.03;;;;;;;;;;5010793;28;20029;-62
2023/10/16 03:48:39;;;;;;;8.83;2.13;;;;;;;;;;5011069;28;20429;-64
2023/10/16 03:51:07;;;;;;;5.60;1.90;;;;;;;;;;5015927;28;20030;-63
2023/10/16 03:53:35;;;;;;;7.33;2.10;;;;;;;;;;5011182;28;20029;-64
2023/10/16 03:56:07;;;;;;;8.73;2.10;;;;;;;;;;5015313;28;20026;-63
2023/10/16 03:58:34;;;;;;;9.57;2.30;;;;;;;;;;5011063;28;20022;-64
2023/10/16 04:01:07;;;;;;;8.50;2.43;;;;;;;;;;5012246;28;20037;-66
2023/10/16 04:03:46;;;;;;;8.10;1.97;;;;;;;;;;5008380;28;20029;-66
2023/10/16 04:06:11;;;;;;;5.77;2.13;;;;;;;;;;5010677;28;20025;-63
2023/10/16 04:08:36;;;;;;;12.33;2.20;;;;;;;;;;5011121;28;20095;-66
2023/10/16 04:11:03;;;;;;;6.03;2.03;;;;;;;;;;5012876;28;20062;-66
2023/10/16 04:13:31;;;;;;;9.63;2.57;;;;;;;;;;5013822;28;20032;-66
2023/10/16 04:18:33;;;;;;;7.60;2.20;;;;;;;;;;5009117;28;20518;-66
2023/10/16 04:47:48;;;;;;;5.77;2.20;;;;;;;;;;4967798;28;20031;-66
2023/10/16 04:50:15;;;;;;;8.70;2.20;;;;;;;;;;4968832;28;20038;-63
2023/10/16 05:16:35;;;;;;;9.50;2.20;;;;;;;;;;5069898;28;20027;-63
2023/10/16 05:19:03;;;;;;;8.07;2.20;;;;;;;;;;5069318;28;20024;-61
2023/10/16 06:16:17;;;;;;;11.90;3.80;;;;;;;;;;5012709;28;20068;-64
2023/10/16 06:18:44;;;;;;;7.80;3.83;;;;;;;;;;5012268;28;20102;-65
2023/10/16 06:21:09;;;;;;;9.47;3.80;;;;;;;;;;5012498;28;20010;-64
2023/10/16 06:23:42;;;;;;;8.87;3.80;;;;;;;;;;5012549;28;20044;-66
2023/10/16 06:26:08;;;;;;;9.97;4.27;;;;;;;;;;5012889;28;20029;-65
2023/10/16 06:28:33;;;;;;;7.63;3.73;;;;;;;;;;5012799;28;20357;-64
2023/10/16 06:30:59;;;;;;;6.80;3.40;;;;;;;;;;5012632;28;20033;-63
2023/10/16 06:33:24;;;;;;;7.93;3.77;;;;;;;;;;5012554;28;20044;-65
2023/10/16 06:35:52;;;;;;;7.87;3.73;;;;;;;;;;5012254;28;20014;-64
2023/10/16 06:38:20;;;;;;;11.47;3.77;;;;;;;;;;5012345;28;20029;-65
2023/10/16 06:40:46;;;;;;;14.80;4.17;;;;;;;;;;5012519;28;20022;-66
2023/10/16 06:43:12;;;;;;;7.43;3.37;;;;;;;;;;5012364;28;20376;-68
2023/10/16 06:45:42;;;;;;;12.57;4.13;;;;;;;;;;5012140;28;20018;-68
2023/10/16 06:48:08;;;;;;;13.93;3.63;;;;;;;;;;5011997;28;20488;-68
2023/10/16 06:50:35;;;;;;;7.67;3.40;;;;;;;;;;5012008;28;20022;-68
2023/10/16 06:53:00;;;;;;;9.03;3.33;;;;;;;;;;5012388;28;20386;-68
2023/10/16 06:55:25;;;;;;;11.73;3.43;;;;;;;;;;5012353;28;20101;-64
2023/10/16 06:57:51;;;;;;;13.33;3.07;;;;;;;;;;5012040;28;20074;-64
2023/10/16 07:00:23;;;;;;;9.70;2.97;;;;;;;;;;5012404;28;20018;-62
2023/10/16 07:02:54;;;;;;;9.63;3.47;;;;;;;;;;5011804;28;20028;-62
2023/10/16 07:05:22;;;;;;;9.88;3.03;;;;;;;;;;5012004;28;20025;-66
2023/10/16 07:07:48;;;;;;;7.80;3.30;;;;;;;;;;5011848;28;20026;-63
2023/10/16 07:10:13;;;;;;;10.50;3.17;;;;;;;;;;5011744;28;20021;-61
2023/10/16 07:12:56;;;;;;;10.70;3.40;;;;;;;;;;5011893;28;20036;-64
2023/10/16 07:15:24;;;;;;;7.30;3.17;;;;;;;;;;5011027;28;20033;-63
2023/10/16 07:17:50;;;;;;;13.43;3.73;;;;;;;;;;5011005;28;20504;-65
2023/10/16 07:20:23;;;;;;;6.90;3.60;;;;;;;;;;5011613;28;20018;-65
2023/10/16 07:22:48;;;;;;;9.00;3.50;;;;;;;;;;5011547;28;20033;-63
2023/10/16 07:25:23;;;;;;;8.03;2.80;;;;;;;;;;5008289;28;20021;-61
2023/10/16 07:27:48;;;;;;;8.07;3.40;;;;;;;;;;5011384;28;20024;-64
2023/10/16 07:30:23;;;;;;;7.73;3.27;;;;;;;;;;5011325;28;20108;-61
2023/10/16 07:32:51;;;;;;;10.17;3.50;;;;;;;;;;5010432;28;20475;-64
2023/10/16 07:35:17;;;;;;;7.77;3.30;;;;;;;;;;5011487;28;20014;-60
2023/10/16 07:37:43;;;;;;;9.57;2.97;;;;;;;;;;5011608;28;20021;-62
2023/10/16 07:40:08;;;;;;;15.93;3.37;;;;;;;;;;5011417;28;20479;-60
2023/10/16 07:42:35;;;;;;;12.17;3.40;;;;;;;;;;5011316;28;20045;-61
2023/10/16 07:45:00;;;;;;;9.00;3.40;;;;;;;;;;5011195;28;20030;-62
2023/10/16 07:47:26;;;;;;;7.23;2.87;;;;;;;;;;5011092;28;20032;-60
2023/10/16 07:49:51;;;;;;;7.37;3.07;;;;;;;;;;5011581;28;20025;-62
2023/10/16 07:52:18;;;;;;;9.33;3.50;;;;;;;;;;5011405;28;20026;-61
2023/10/16 07:54:43;;;;;;;10.17;3.50;;;;;;;;;;5011099;28;20109;-64
2023/10/16 07:57:08;;;;;;;7.53;3.10;;;;;;;;;;5011160;28;20052;-63
2023/10/16 07:59:36;;;;;;;7.13;2.90;;;;;;;;;;5011039;28;20057;-61
2023/10/16 08:02:04;;;;;;;7.53;3.00;;;;;;;;;;5011290;28;20460;-61
2023/10/16 08:04:35;;;;;;;10.03;3.27;;;;;;;;;;5005664;28;20152;-64
2023/10/16 08:07:08;;;;;;;8.73;3.43;;;;;;;;;;5011306;28;20038;-62
2023/10/16 08:12:12;;;;;;;13.83;3.20;;;;;;;;;;5010975;28;20072;-64
2023/10/16 08:14:41;;;;;;;11.77;2.87;;;;;;;;;;5010912;28;20025;-64
2023/10/16 08:17:14;;;;;;;10.57;2.90;;;;;;;;;;5010517;28;20053;-63
2023/10/16 08:19:39;;;;;;;10.13;3.27;;;;;;;;;;5011097;28;20018;-60
2023/10/16 08:22:07;;;;;;;9.63;3.00;;;;;;;;;;5011189;28;20345;-62
2023/10/16 08:24:32;;;;;;;9.43;2.80;;;;;;;;;;5011103;28;20480;-62
2023/10/16 08:27:10;;;;;;;7.60;3.20;;;;;;;;;;5010499;28;20112;-65
2023/10/16 08:29:37;;;;;;;5.63;2.90;;;;;;;;;;5010704;28;20105;-62
2023/10/16 08:34:46;;;;;;;8.00;3.03;;;;;;;;;;5010698;28;20033;-62
2023/10/16 08:37:13;;;;;;;6.90;2.20;;;;;;;;;;5009282;28;20013;-59
2023/10/16 08:39:44;;;;;;;5.33;2.20;;;;;;;;;;5010430;28;20010;-61
2023/10/16 08:44:44;;;;;;;8.90;2.43;;;;;;;;;;5010681;28;20021;-64
2023/10/16 08:47:16;;;;;;;8.73;2.60;;;;;;;;;;5006692;28;20018;-63
2023/10/16 08:49:51;;;;;;;5.28;2.13;;;;;;;;;;5010586;28;20026;-64
2023/10/16 08:52:22;;;;;;;6.23;2.30;;;;;;;;;;5010787;28;20519;-64
2023/10/16 08:57:16;;;;;;;7.87;2.27;;;;;;;;;;5010529;28;20049;-61
2023/10/16 08:59:42;;;;;;;6.93;2.70;;;;;;;;;;5010054;28;20041;-65
2023/10/16 09:02:11;;;;;;;7.70;2.50;;;;;;;;;;5010186;28;20022;-64
2023/10/16 09:04:37;;;;;;;7.60;2.53;;;;;;;;;;5010313;28;20515;-65
2023/10/16 09:07:02;;;;;;;7.10;2.30;;;;;;;;;;5010359;28;20042;-63
2023/10/16 09:09:29;;;;;;;7.07;2.37;;;;;;;;;;5010309;28;20022;-61
2023/10/16 09:12:04;;;;;;;6.30;2.23;;;;;;;;;;5010217;28;20026;-61
2023/10/16 09:14:30;;;;;;;6.63;2.67;;;;;;;;;;5009379;28;20131;-62
2023/10/16 09:16:57;;;;;;;7.37;2.90;;;;;;;;;;5009537;28;20125;-66
2023/10/16 09:19:35;;;;;;;7.13;2.60;;;;;;;;;;5009822;28;20384;-63
2023/10/16 09:22:04;;;;;;;7.07;2.40;;;;;;;;;;5007730;28;20016;-64
2023/10/16 09:24:29;;;;;;;8.77;2.70;;;;;;;;;;5010000;28;20021;-62
2023/10/16 09:26:55;;;;;;;11.20;2.33;;;;;;;;;;5009757;28;20472;-65
2023/10/16 09:29:25;;;;;;;5.80;2.30;;;;;;;;;;5010104;28;20022;-64
2023/10/16 09:31:50;;;;;;;7.33;2.20;;;;;;;;;;5009619;28;20024;-61
2023/10/16 09:34:18;;;;;;;6.90;2.00;;;;;;;;;;5009880;28;20026;-62
2023/10/16 09:39:36;;;;;;;5.18;1.90;;;;;;;;;;5008532;28;20029;-65
2023/10/16 09:42:11;;;;;;;6.07;1.95;;;;;;;;;;5010004;28;20018;-62
2023/10/16 09:44:37;;;;;;;6.97;1.77;;;;;;;;;;5009978;28;20021;-66
2023/10/16 09:47:25;;;;;;;6.55;2.00;;;;;;;;;;5009779;28;20487;-63
2023/10/16 09:49:48;;;;;;;5.68;1.75;;;;;;;;;;5009494;28;20101;-61
2023/10/16 09:52:17;;;;;;;5.75;1.65;;;;;;;;;;5009476;28;20320;-62
2023/10/16 09:54:43;;;;;;;8.63;2.22;;;;;;;;;;5009585;28;20533;-61
2023/10/16 09:57:11;;;;;;;4.10;1.60;;;;;;;;;;5009362;28;20014;-61
2023/10/16 09:59:38;;;;;;;5.20;1.80;;;;;;;;;;5009214;28;20030;-63
2023/10/16 10:02:16;;;;;;;5.93;1.80;;;;;;;;;;5005882;28;20037;-63
2023/10/16 10:04:45;;;;;;;6.93;1.90;;;;;;;;;;5009589;28;20018;-63
2023/10/16 10:07:13;;;;;;;6.55;2.30;;;;;;;;;;5009667;28;20033;-62
2023/10/16 10:09:44;;;;;;;7.53;2.13;;;;;;;;;;5009173;28;20020;-61
2023/10/16 10:12:27;;;;;;;9.18;2.45;;;;;;;;;;5009236;28;20010;-63
2023/10/16 10:15:12;;;;;;;6.40;2.33;;;;;;;;;;5009122;28;20022;-63
2023/10/16 10:17:38;;;;;;;7.05;2.47;;;;;;;;;;5009096;28;20045;-61
2023/10/16 10:20:08;;;;;;;5.88;2.40;;;;;;;;;;5007796;28;20464;-63
2023/10/16 10:22:35;;;;;;;6.47;2.20;;;;;;;;;;5009464;28;20467;-61
2023/10/16 10:25:16;;;;;;;5.03;2.10;;;;;;;;;;5009337;28;20464;-64
2023/10/16 10:27:42;;;;;;;5.72;1.90;;;;;;;;;;5009077;28;20025;-63
2023/10/16 10:30:33;;;;;;;6.85;2.13;;;;;;;;;;5009116;28;20097;-62
2023/10/16 10:32:59;;;;;;;7.50;2.10;;;;;;;;;;4929858;28;20130;-62
2023/10/16 10:35:38;;;;;;;5.75;1.88;;;;;;;;;;4929689;29;20032;-63
2023/10/16 10:38:17;;;;;;;7.00;1.98;;;;;;;;;;4929530;29;20102;-63
2023/10/16 10:41:02;;;;;;;9.05;3.83;;;;;;;;;;4929539;29;20525;-63
2023/10/16 10:43:46;;;;;;;11.60;2.05;;;;;;;;;;4929471;29;20032;-63
2023/10/16 10:46:32;;;;;;;4.50;1.70;;;;;;;;;;4929428;29;20536;-63
2023/10/16 10:49:00;;;;;;;6.57;1.95;;;;;;;;;;4929083;29;20538;-63
2023/10/16 10:51:29;;;;;;;6.18;1.73;;;;;;;;;;4932077;29;20028;-63
2023/10/16 10:53:56;;;;;;;5.25;1.42;;;;;;;;;;4932510;29;20042;-63
2023/10/16 10:56:21;;;;;;;4.53;1.60;;;;;;;;;;4931270;29;20115;-61
2023/10/16 10:58:47;;;;;;;5.68;1.60;;;;;;;;;;4932326;29;20502;-62
2023/10/16 11:01:28;;;;;;;11.80;1.92;;;;;;;;;;4932488;29;20030;-61
2023/10/16 11:03:55;;;;;;;5.20;1.50;;;;;;;;;;4932448;29;20038;-63
2023/10/16 11:06:22;;;;;;;6.05;2.10;;;;;;;;;;4932457;29;20043;-61
2023/10/16 11:08:47;;;;;;;7.25;1.85;;;;;;;;;;4934951;28;20038;-61
2023/10/16 11:11:14;;;;;;;4.18;1.60;;;;;;;;;;5011867;28;20022;-62
2023/10/16 11:13:48;;;;;;;6.85;1.35;;;;;;;;;;5011954;28;20544;-59
2023/10/16 11:16:18;;;;;;;5.60;1.38;;;;;;;;;;5011711;28;20198;-60
2023/10/16 11:18:59;;;;;;;5.22;1.20;;;;;;;;;;5011179;28;20053;-63
2023/10/16 11:21:25;;;;;;;4.57;1.40;;;;;;;;;;5009849;28;20234;-63
2023/10/16 11:23:55;;;;;;;7.07;1.63;;;;;;;;;;5011969;28;20044;-62
2023/10/16 11:26:22;;;;;;;5.13;1.27;;;;;;;;;;5011944;28;20018;-62
2023/10/16 11:28:50;;;;;;;5.68;1.40;;;;;;;;;;5008002;28;20022;-64
2023/10/16 11:31:18;;;;;;;8.38;1.48;;;;;;;;;;5011748;28;20038;-64
2023/10/16 11:34:00;;;;;;;7.07;1.50;;;;;;;;;;5011583;28;20105;-63
2023/10/16 11:36:27;;;;;;;5.63;1.23;;;;;;;;;;5011799;28;20022;-60
2023/10/16 11:38:53;;;;;;;8.45;1.58;;;;;;;;;;5011658;28;20472;-62
2023/10/16 11:41:19;;;;;;;5.70;1.60;;;;;;;;;;5011632;28;20006;-63
2023/10/16 11:43:51;;;;;;;4.65;1.40;;;;;;;;;;5011677;28;20438;-63
2023/10/16 11:46:28;;;;;;;4.43;1.40;;;;;;;;;;5011416;28;20018;-64
2023/10/16 11:48:57;;;;;;;7.32;1.20;;;;;;;;;;5011561;28;20018;-62
2023/10/16 11:51:23;;;;;;;6.28;1.27;;;;;;;;;;5011025;28;20074;-63
2023/10/16 11:53:49;;;;;;;6.00;1.37;;;;;;;;;;5011501;28;20426;-63
2023/10/16 11:56:18;;;;;;;5.73;1.20;;;;;;;;;;5011425;28;20021;-64
2023/10/16 11:58:43;;;;;;;10.95;1.50;;;;;;;;;;5011460;28;20349;-64
2023/10/16 12:01:12;;;;;;;5.63;1.10;;;;;;;;;;5006680;28;20029;-64
2023/10/16 12:03:38;;;;;;;6.90;1.30;;;;;;;;;;5011205;28;20430;-64
2023/10/16 12:06:07;;;;;;;10.43;1.67;;;;;;;;;;5011258;28;20021;-64
2023/10/16 12:08:32;;;;;;;6.18;1.42;;;;;;;;;;5011200;28;20540;-64
2023/10/16 12:11:01;;;;;;;3.88;1.00;;;;;;;;;;5011138;28;20097;-63
2023/10/16 12:13:27;;;;;;;4.25;0.93;;;;;;;;;;5010991;28;20491;-63
2023/10/16 12:15:53;;;;;;;7.82;1.35;;;;;;;;;;5010918;28;20049;-63
2023/10/16 12:18:19;;;;;;;5.45;1.33;;;;;;;;;;5010719;28;20092;-64
2023/10/16 12:20:44;;;;;;;4.15;1.02;;;;;;;;;;5011084;28;20014;-63
2023/10/16 12:23:09;;;;;;;7.03;1.40;;;;;;;;;;5011336;28;20067;-64
2023/10/16 12:25:35;;;;;;;5.05;1.40;;;;;;;;;;5010932;28;20421;-63
2023/10/16 12:28:02;;;;;;;6.55;1.48;;;;;;;;;;5010754;28;20441;-63
2023/10/16 12:30:28;;;;;;;8.00;1.40;;;;;;;;;;5011054;28;20057;-64
2023/10/16 12:32:54;;;;;;;7.45;1.55;;;;;;;;;;5010458;28;20010;-64
2023/10/16 12:35:22;;;;;;;5.47;1.40;;;;;;;;;;5010743;28;20057;-63
2023/10/16 12:37:48;;;;;;;4.13;1.20;;;;;;;;;;5010779;28;20024;-63
2023/10/16 12:40:33;;;;;;;6.05;1.13;;;;;;;;;;5010935;28;20456;-63
2023/10/16 12:42:58;;;;;;;6.40;1.63;;;;;;;;;;5010573;28;20384;-64
2023/10/16 12:45:25;;;;;;;6.03;1.90;;;;;;;;;;5010883;28;20026;-62
2023/10/16 12:47:54;;;;;;;5.10;1.77;;;;;;;;;;5010712;28;20044;-62
2023/10/16 12:50:23;;;;;;;7.60;1.30;;;;;;;;;;5010632;28;20022;-63
2023/10/16 12:52:51;;;;;;;6.70;1.30;;;;;;;;;;5010556;28;20018;-63
2023/10/16 12:55:18;;;;;;;3.93;1.30;;;;;;;;;;5008858;28;20182;-63
2023/10/16 12:57:44;;;;;;;6.57;1.40;;;;;;;;;;5010600;28;20533;-67
2023/10/16 13:00:19;;;;;;;6.27;1.50;;;;;;;;;;5010124;28;20023;-67
2023/10/16 13:02:48;;;;;;;6.77;1.60;;;;;;;;;;5008798;28;20116;-67
2023/10/16 13:05:14;;;;;;;5.87;1.90;;;;;;;;;;5010154;28;20017;-66
2023/10/16 13:07:43;;;;;;;5.33;1.70;;;;;;;;;;5008961;28;20025;-67
2023/10/16 13:10:31;;;;;;;4.47;1.90;;;;;;;;;;5010187;28;20448;-67
2023/10/16 13:12:57;;;;;;;6.33;1.47;;;;;;;;;;5009461;28;20018;-67
2023/10/16 13:15:25;;;;;;;6.13;1.20;;;;;;;;;;5009810;28;20030;-67
2023/10/16 13:17:52;;;;;;;8.30;1.40;;;;;;;;;;5009680;28;20042;-66
2023/10/16 13:20:17;;;;;;;4.00;1.30;;;;;;;;;;5009666;28;20022;-67
2023/10/16 13:22:49;;;;;;;5.72;1.52;;;;;;;;;;5010654;28;20029;-68
2023/10/16 13:25:22;;;;;;;5.18;1.98;;;;;;;;;;5006784;28;20026;-66
2023/10/16 13:27:47;;;;;;;5.68;1.40;;;;;;;;;;5009764;28;20417;-68
2023/10/16 13:30:16;;;;;;;5.90;1.60;;;;;;;;;;5009933;28;20021;-67
2023/10/16 13:32:41;;;;;;;7.22;1.45;;;;;;;;;;5007605;28;20447;-67
2023/10/16 13:35:12;;;;;;;7.63;1.38;;;;;;;;;;5009890;28;20101;-67
2023/10/16 13:37:38;;;;;;;4.70;1.20;;;;;;;;;;5006318;28;20038;-67
2023/10/16 13:40:04;;;;;;;4.38;1.20;;;;;;;;;;5009551;28;20021;-68
2023/10/16 13:42:30;;;;;;;6.70;1.20;;;;;;;;;;5009894;28;20021;-67
2023/10/16 13:44:55;;;;;;;6.22;1.00;;;;;;;;;;5009902;28;20376;-68
2023/10/16 13:47:20;;;;;;;3.97;0.98;;;;;;;;;;5009582;28;20018;-68
2023/10/16 13:49:47;;;;;;;4.10;1.30;;;;;;;;;;5009570;28;20030;-68
2023/10/16 13:52:14;;;;;;;4.47;0.90;;;;;;;;;;5009277;28;20041;-69
2023/10/16 13:54:40;;;;;;;5.50;1.15;;;;;;;;;;5009231;28;20014;-68
2023/10/16 13:57:07;;;;;;;6.60;1.20;;;;;;;;;;5005483;28;20418;-68
2023/10/16 13:59:33;;;;;;;6.07;1.58;;;;;;;;;;5009619;28;20015;-68
2023/10/16 14:02:01;;;;;;;3.85;1.33;;;;;;;;;;5009295;28;20067;-68
2023/10/16 14:04:32;;;;;;;5.15;1.20;;;;;;;;;;5009463;28;20052;-68
2023/10/16 14:06:58;;;;;;;7.55;1.38;;;;;;;;;;5009338;28;20014;-64
2023/10/16 14:09:32;;;;;;;7.25;1.40;;;;;;;;;;5009523;28;20030;-64
2023/10/16 14:11:58;;;;;;;5.30;1.52;;;;;;;;;;5009222;28;20097;-63
2023/10/16 14:14:24;;;;;;;6.72;1.60;;;;;;;;;;5009247;28;20029;-65
2023/10/16 14:16:51;;;;;;;5.03;1.83;;;;;;;;;;5005419;28;20030;-64
2023/10/16 14:19:27;;;;;;;4.65;1.50;;;;;;;;;;5007936;28;20391;-63
2023/10/16 14:21:54;;;;;;;8.68;1.70;;;;;;;;;;5009436;28;20022;-64
2023/10/16 14:24:22;;;;;;;5.63;1.38;;;;;;;;;;5009397;28;20017;-64
2023/10/16 14:26:49;;;;;;;6.25;1.30;;;;;;;;;;5011208;28;20037;-66
2023/10/16 14:29:15;;;;;;;5.75;1.48;;;;;;;;;;5012872;28;20372;-64
2023/10/16 14:31:41;;;;;;;5.75;1.67;;;;;;;;;;5012745;28;20022;-66
2023/10/16 14:34:06;;;;;;;6.85;2.33;;;;;;;;;;5010893;28;20075;-65
2023/10/16 14:36:32;;;;;;;6.07;1.75;;;;;;;;;;5012776;28;20460;-65
2023/10/16 14:38:59;;;;;;;9.10;1.95;;;;;;;;;;5012221;28;20402;-65
2023/10/16 14:41:25;;;;;;;4.85;1.70;;;;;;;;;;5012580;28;20371;-65
2023/10/16 14:43:50;;;;;;;3.10;1.03;;;;;;;;;;5012564;28;20026;-64
2023/10/16 14:46:17;;;;;;;3.87;1.10;;;;;;;;;;5012214;28;20067;-65
2023/10/16 14:48:42;;;;;;;3.28;0.88;;;;;;;;;;5012094;28;20022;-65
2023/10/16 14:51:12;;;;;;;4.10;0.75;;;;;;;;;;5011876;28;20021;-64
2023/10/16 14:53:39;;;;;;;3.27;1.00;;;;;;;;;;5012102;28;20029;-65
2023/10/16 14:56:06;;;;;;;2.22;0.82;;;;;;;;;;5011965;28;20499;-64
2023/10/16 14:58:31;;;;;;;2.17;0.80;;;;;;;;;;5012396;28;20158;-64
2023/10/16 15:00:56;;;;;;;2.70;0.80;;;;;;;;;;5012140;28;20063;-64
2023/10/16 15:03:22;;;;;;;4.22;1.00;;;;;;;;;;5012415;28;20024;-64
2023/10/16 15:05:49;;;;;;;3.72;1.00;;;;;;;;;;5011994;28;20018;-64
2023/10/16 15:08:14;;;;;;;3.97;1.10;;;;;;;;;;5011727;28;20024;-64
2023/10/16 15:10:42;;;;;;;2.58;1.23;;;;;;;;;;5041212;28;20473;-64
2023/10/16 15:13:09;;;;;;;3.67;1.40;;;;;;;;;;5012547;28;20479;-64
2023/10/16 15:15:34;;;;;;;3.50;1.30;;;;;;;;;;5003234;28;20476;-64
2023/10/16 15:17:59;;;;;;;8.60;2.20;;;;;;;;;;5012075;28;20052;-67
2023/10/16 15:20:26;;;;;;;6.80;2.30;;;;;;;;;;5012641;28;20010;-68
2023/10/16 15:22:51;;;;;;;7.53;2.03;;;;;;;;;;5011836;28;20018;-68
2023/10/16 15:25:16;;;;;;;5.43;1.90;;;;;;;;;;5014642;28;20028;-68
2023/10/16 15:27:43;;;;;;;6.43;2.40;;;;;;;;;;5009805;28;20049;-67
2023/10/16 15:30:12;;;;;;;4.67;1.70;;;;;;;;;;5007168;28;20489;-68
2023/10/16 15:32:39;;;;;;;5.13;1.93;;;;;;;;;;5021072;28;20045;-67
2023/10/16 15:35:05;;;;;;;7.73;2.37;;;;;;;;;;5011246;28;20071;-68
2023/10/16 15:37:32;;;;;;;8.37;3.53;;;;;;;;;;5032426;28;20008;-68
2023/10/16 15:39:57;;;;;;;8.27;3.00;;;;;;;;;;5011974;28;20109;-69
2023/10/16 15:42:22;;;;;;;9.93;3.40;;;;;;;;;;5010215;28;20097;-69
2023/10/16 15:44:50;;;;;;;8.43;3.20;;;;;;;;;;5007932;28;20066;-68
2023/10/16 15:47:15;;;;;;;7.60;3.23;;;;;;;;;;5020668;28;20388;-68
2023/10/16 15:49:41;;;;;;;6.77;3.10;;;;;;;;;;5010220;28;20017;-68
2023/10/16 15:52:06;;;;;;;7.73;3.10;;;;;;;;;;5021549;28;20383;-69
2023/10/16 15:54:32;;;;;;;6.27;2.67;;;;;;;;;;5013103;28;20026;-68
2023/10/16 15:56:57;;;;;;;7.03;2.50;;;;;;;;;;5024037;28;20010;-68
2023/10/16 15:59:22;;;;;;;6.87;2.73;;;;;;;;;;5009836;28;20010;-69
2023/10/16 16:01:48;;;;;;;9.43;2.60;;;;;;;;;;5009756;28;20372;-69
2023/10/16 16:04:18;;;;;;;7.63;2.73;;;;;;;;;;5009758;28;20038;-70
2023/10/16 16:06:44;;;;;;;10.17;3.70;;;;;;;;;;5009760;28;20024;-71
2023/10/16 16:09:13;;;;;;;8.13;3.10;;;;;;;;;;5011664;28;20018;-72
2023/10/16 16:11:44;;;;;;;8.37;3.33;;;;;;;;;;5012861;28;20024;-71
2023/10/16 16:14:12;;;;;;;11.53;4.30;;;;;;;;;;5009505;28;20021;-72
2023/10/16 16:16:37;;;;;;;12.10;4.50;;;;;;;;;;5012172;28;20075;-72
2023/10/16 16:19:05;;;;;;;13.53;5.47;;;;;;;;;;5013048;28;20022;-72
2023/10/16 16:21:32;;;;;;;15.23;6.03;;;;;;;;;;5013509;28;20075;-72
2023/10/16 16:23:58;;;;;;;11.50;5.20;;;;;;;;;;5007291;28;20022;-72
2023/10/16 16:26:24;;;;;;;12.33;5.43;;;;;;;;;;5014610;28;20119;-72
2023/10/16 16:28:50;;;;;;;17.23;6.93;;;;;;;;;;5010768;28;20043;-69
2023/10/16 16:31:15;;;;;;;15.87;6.60;;;;;;;;;;5010913;28;20139;-67
2023/10/16 16:33:41;;;;;;;13.87;5.93;;;;;;;;;;5011871;28;20489;-69
2023/10/16 16:36:09;;;;;;;16.60;6.07;;;;;;;;;;5008628;28;20053;-68
2023/10/16 16:38:35;;;;;;;22.70;6.70;;;;;;;;;;5012447;28;20025;-68
2023/10/16 16:41:00;;;;;;;21.10;6.13;;;;;;;;;;5011486;28;20029;-68
2023/10/16 16:43:25;;;;;;;17.70;6.63;;;;;;;;;;5016612;28;20022;-68
2023/10/16 16:45:50;;;;;;;12.87;6.50;;;;;;;;;;5013379;28;20157;-68
2023/10/16 16:48:16;;;;;;;17.80;6.53;;;;;;;;;;5010272;28;20067;-69
2023/10/16 16:50:42;;;;;;;20.00;9.23;;;;;;;;;;5013482;28;20029;-67
2023/10/16 16:53:07;;;;;;;20.40;9.50;;;;;;;;;;5012164;28;20030;-68
2023/10/16 16:55:34;;;;;;;20.87;8.17;;;;;;;;;;5006578;28;20053;-67